Time;durP1;ratioP1;P1;durP2;ratioP2;P2;SDS_P1;SDS_P2;PMS_P1;PMS_P2;Temp;Humidity;BMP_temperature;BMP_pressure;BME280_temperature;BME280_humidity;BME280_pressure;Samples;Min_cycle;Max_cycle;Signal;HPM_P1;HPM_P2
2021/07/05 00:01:32;;;;;;;5.03;3.90;;;20.90;91.00;;;;;;4862722;29;20049;-89
2021/07/05 00:03:57;;;;;;;6.25;3.47;;;20.90;91.00;;;;;;4863665;29;20045;-90
2021/07/05 00:06:23;;;;;;;6.13;3.38;;;20.90;91.00;;;;;;4880878;29;20064;-91
2021/07/05 00:08:48;;;;;;;4.95;3.80;;;20.90;91.00;;;;;;4879672;29;20046;-89
2021/07/05 00:11:14;;;;;;;4.10;2.90;;;20.90;91.00;;;;;;4870843;29;20483;-89
2021/07/05 00:13:39;;;;;;;4.57;3.22;;;20.80;91.20;;;;;;4865724;29;20041;-90
2021/07/05 00:16:05;;;;;;;5.13;3.00;;;20.80;91.20;;;;;;4864184;29;20042;-91
2021/07/05 00:18:30;;;;;;;4.38;3.42;;;20.80;91.30;;;;;;4866200;29;20041;-90
2021/07/05 00:20:56;;;;;;;4.13;3.33;;;20.80;91.40;;;;;;4876876;29;20398;-91
2021/07/05 00:23:22;;;;;;;6.95;3.72;;;20.70;91.40;;;;;;4869427;29;20099;-92
2021/07/05 00:25:47;;;;;;;4.38;3.50;;;20.70;91.50;;;;;;4871675;29;20565;-91
2021/07/05 00:28:13;;;;;;;4.55;3.88;;;20.70;91.50;;;;;;4855728;29;20057;-91
2021/07/05 00:30:40;;;;;;;4.60;3.53;;;20.70;91.60;;;;;;4877484;29;20429;-90
2021/07/05 00:33:06;;;;;;;4.22;3.60;;;20.70;91.60;;;;;;4862953;29;20310;-91
2021/07/05 00:35:31;;;;;;;4.57;2.85;;;20.70;91.40;;;;;;4865881;29;20033;-92
2021/07/05 00:37:57;;;;;;;4.82;3.10;;;20.70;91.40;;;;;;4865896;29;20363;-90
2021/07/05 00:40:25;;;;;;;3.67;3.10;;;20.70;91.60;;;;;;4864790;29;20474;-91
2021/07/05 00:42:52;;;;;;;4.32;3.17;;;20.70;91.70;;;;;;4864711;29;20045;-90
2021/07/05 00:45:19;;;;;;;4.88;3.40;;;20.70;91.70;;;;;;4870026;29;20658;-90
2021/07/05 00:47:45;;;;;;;4.45;3.17;;;20.60;91.80;;;;;;4862637;29;20045;-89
2021/07/05 00:50:13;;;;;;;5.00;4.22;;;20.60;91.70;;;;;;4866418;29;20048;-90
2021/07/05 00:52:40;;;;;;;4.95;3.67;;;20.60;91.70;;;;;;4864132;29;20049;-90
2021/07/05 00:55:08;;;;;;;4.28;3.55;;;20.60;92.00;;;;;;4863956;29;20041;-89
2021/07/05 00:57:33;;;;;;;5.13;3.75;;;20.50;92.10;;;;;;4865920;29;20056;-90
2021/07/05 00:59:59;;;;;;;4.88;3.63;;;20.50;91.80;;;;;;4867975;29;20045;-91
2021/07/05 01:02:26;;;;;;;3.65;3.17;;;20.50;91.80;;;;;;4857603;29;20037;-89
2021/07/05 01:04:53;;;;;;;3.92;3.22;;;20.60;91.90;;;;;;4864429;29;20034;-91
2021/07/05 01:07:20;;;;;;;4.82;3.45;;;20.60;91.80;;;;;;4852485;29;20056;-90
2021/07/05 01:09:46;;;;;;;3.88;3.40;;;20.60;91.80;;;;;;4857222;29;20203;-91
2021/07/05 01:12:12;;;;;;;4.30;3.58;;;20.60;91.60;;;;;;4865557;29;20798;-92
2021/07/05 01:14:39;;;;;;;5.88;3.15;;;20.60;91.80;;;;;;4864866;29;20129;-91
2021/07/05 01:17:10;;;;;;;3.30;2.80;;;20.60;91.70;;;;;;4865387;29;20045;-91
2021/07/05 01:19:37;;;;;;;3.88;3.10;;;20.50;91.70;;;;;;4881784;29;20132;-91
2021/07/05 01:22:03;;;;;;;4.28;3.28;;;20.50;91.70;;;;;;4870868;29;20041;-90
2021/07/05 01:24:29;;;;;;;4.07;2.85;;;20.50;91.80;;;;;;4852986;29;20045;-90
2021/07/05 01:26:54;;;;;;;3.95;2.72;;;20.40;91.80;;;;;;4865190;29;20087;-89
2021/07/05 01:29:20;;;;;;;2.90;2.60;;;20.50;91.80;;;;;;4878195;29;20696;-90
2021/07/05 01:31:45;;;;;;;4.15;2.60;;;20.40;91.80;;;;;;4879461;29;20041;-89
2021/07/05 01:34:11;;;;;;;3.30;2.55;;;20.40;91.70;;;;;;4862229;29;20110;-90
2021/07/05 01:36:36;;;;;;;5.10;3.13;;;20.40;91.60;;;;;;4863984;29;20275;-90
2021/07/05 01:39:02;;;;;;;3.97;3.45;;;20.40;91.70;;;;;;4861335;29;20128;-90
2021/07/05 01:41:28;;;;;;;3.53;3.03;;;20.40;91.70;;;;;;4864817;29;20128;-91
2021/07/05 01:43:53;;;;;;;4.10;3.15;;;20.40;91.80;;;;;;4880296;29;20309;-89
2021/07/05 01:46:19;;;;;;;3.65;2.63;;;20.30;92.10;;;;;;4862834;29;20053;-90
2021/07/05 01:48:46;;;;;;;3.85;2.47;;;20.30;91.90;;;;;;4863652;29;20387;-89
2021/07/05 01:51:12;;;;;;;3.33;2.92;;;20.30;91.80;;;;;;4872505;29;20221;-90
2021/07/05 01:53:38;;;;;;;3.42;3.13;;;20.30;91.70;;;;;;4863585;29;20128;-91
2021/07/05 01:56:04;;;;;;;3.70;2.38;;;20.30;91.90;;;;;;4877815;29;20053;-91
2021/07/05 01:58:29;;;;;;;6.72;2.58;;;20.30;91.70;;;;;;4867016;29;20041;-90
2021/07/05 02:00:57;;;;;;;3.97;2.88;;;20.20;91.80;;;;;;4862829;29;20045;-89
2021/07/05 02:03:22;;;;;;;4.00;2.50;;;20.20;91.90;;;;;;4873635;29;20752;-90
2021/07/05 02:05:48;;;;;;;5.78;2.67;;;20.30;92.00;;;;;;4864460;29;20085;-90
2021/07/05 02:08:16;;;;;;;2.80;2.28;;;20.30;91.90;;;;;;4858839;29;20147;-91
2021/07/05 02:10:42;;;;;;;3.33;1.85;;;20.30;91.70;;;;;;4877711;29;20386;-91
2021/07/05 02:13:12;;;;;;;2.90;2.05;;;20.20;91.90;;;;;;4868908;29;20148;-90
2021/07/05 02:15:39;;;;;;;2.38;1.90;;;20.20;91.80;;;;;;4859306;29;20045;-90
2021/07/05 02:18:04;;;;;;;2.65;2.28;;;20.20;91.90;;;;;;4880280;29;20041;-89
2021/07/05 02:20:31;;;;;;;3.35;2.22;;;20.20;91.80;;;;;;4862972;29;20041;-91
2021/07/05 02:22:59;;;;;;;2.33;2.00;;;20.20;91.70;;;;;;4879495;29;20041;-90
2021/07/05 02:25:27;;;;;;;2.92;2.15;;;20.20;91.60;;;;;;4879866;29;20076;-91
2021/07/05 02:27:55;;;;;;;2.38;2.00;;;20.20;91.60;;;;;;4862191;29;20471;-91
2021/07/05 02:30:21;;;;;;;2.92;1.95;;;20.20;91.80;;;;;;4878239;29;20041;-89
2021/07/05 02:32:48;;;;;;;3.53;2.38;;;20.10;91.90;;;;;;4861618;29;20132;-90
2021/07/05 02:35:15;;;;;;;2.88;2.10;;;20.10;91.90;;;;;;4863198;29;20041;-91
2021/07/05 02:37:43;;;;;;;2.65;2.22;;;20.10;92.20;;;;;;4878057;29;20049;-91
2021/07/05 02:40:14;;;;;;;4.68;2.47;;;20.10;92.10;;;;;;4874355;29;20426;-91
2021/07/05 02:42:40;;;;;;;3.80;1.70;;;20.00;92.10;;;;;;4864376;29;20037;-90
2021/07/05 02:45:08;;;;;;;4.05;2.20;;;20.00;92.40;;;;;;4863845;29;20049;-89
2021/07/05 02:47:34;;;;;;;3.45;2.47;;;20.00;92.40;;;;;;4862963;29;20498;-90
2021/07/05 02:50:00;;;;;;;2.40;1.95;;;20.00;92.20;;;;;;4878964;29;20107;-88
2021/07/05 02:52:25;;;;;;;5.70;2.20;;;20.10;92.40;;;;;;4862951;29;20073;-87
2021/07/05 02:54:51;;;;;;;2.88;2.17;;;20.00;92.40;;;;;;4878878;29;20041;-91
2021/07/05 02:57:37;;;;;;;3.17;2.22;;;20.10;92.50;;;;;;4862223;29;20393;-90
2021/07/05 03:00:15;;;;;;;2.13;1.75;;;20.10;92.50;;;;;;4857440;29;20330;-90
2021/07/05 03:02:40;;;;;;;2.85;2.28;;;20.00;92.50;;;;;;4865085;29;20052;-90
2021/07/05 03:05:08;;;;;;;4.50;2.10;;;20.00;92.60;;;;;;4872659;29;20132;-90
2021/07/05 03:07:34;;;;;;;3.53;2.55;;;20.00;92.50;;;;;;4861360;29;20489;-89
2021/07/05 03:10:00;;;;;;;2.38;2.10;;;20.00;92.70;;;;;;4855184;29;20061;-91
2021/07/05 03:12:26;;;;;;;2.75;2.38;;;20.00;92.80;;;;;;4860321;29;20050;-89
2021/07/05 03:14:54;;;;;;;2.40;1.98;;;20.00;92.80;;;;;;4861050;29;20390;-89
2021/07/05 03:17:19;;;;;;;3.90;2.50;;;20.00;92.80;;;;;;4862870;29;20104;-89
2021/07/05 03:19:45;;;;;;;4.72;2.65;;;20.10;92.70;;;;;;4859924;29;20410;-89
2021/07/05 03:22:11;;;;;;;2.90;2.20;;;20.00;92.70;;;;;;4862710;29;20046;-88
2021/07/05 03:24:36;;;;;;;3.15;2.22;;;19.90;92.70;;;;;;4870183;29;20198;-89
2021/07/05 03:27:03;;;;;;;2.92;2.35;;;19.80;93.00;;;;;;4859290;29;20295;-90
2021/07/05 03:29:28;;;;;;;2.22;1.92;;;19.80;93.20;;;;;;4860844;29;20301;-90
2021/07/05 03:31:54;;;;;;;2.83;2.38;;;19.70;93.40;;;;;;4858400;29;20041;-90
2021/07/05 03:34:20;;;;;;;2.65;2.17;;;19.80;93.80;;;;;;4861338;29;20061;-90
2021/07/05 03:36:45;;;;;;;3.28;2.38;;;19.70;94.00;;;;;;4878468;29;20061;-89
2021/07/05 03:39:11;;;;;;;2.97;2.28;;;19.70;94.40;;;;;;4866097;29;20082;-89
2021/07/05 03:41:36;;;;;;;3.45;2.03;;;19.60;94.50;;;;;;4866924;29;20294;-90
2021/07/05 03:44:01;;;;;;;4.22;2.00;;;19.60;94.60;;;;;;4875986;29;20140;-90
2021/07/05 03:46:27;;;;;;;8.60;2.80;;;19.50;95.10;;;;;;4876630;29;20053;-89
2021/07/05 03:48:53;;;;;;;3.03;2.38;;;19.40;95.40;;;;;;4865202;29;20050;-90
2021/07/05 03:51:18;;;;;;;2.90;2.60;;;19.40;95.50;;;;;;4876654;29;20390;-91
2021/07/05 03:53:44;;;;;;;2.70;2.40;;;19.30;95.90;;;;;;4863945;29;20068;-91
2021/07/05 03:56:09;;;;;;;3.17;2.60;;;19.30;96.10;;;;;;4864839;29;20095;-90
2021/07/05 03:58:35;;;;;;;4.30;3.00;;;19.20;96.10;;;;;;4866973;29;20037;-90
2021/07/05 04:01:00;;;;;;;3.53;2.35;;;19.20;96.70;;;;;;4866094;29;20045;-89
2021/07/05 04:03:27;;;;;;;2.95;2.65;;;19.10;96.70;;;;;;4861911;29;20182;-91
2021/07/05 04:05:53;;;;;;;4.20;2.70;;;19.10;96.80;;;;;;4866703;29;20053;-89
2021/07/05 04:08:20;;;;;;;4.68;2.75;;;19.00;97.20;;;;;;4860102;29;20049;-90
2021/07/05 04:10:46;;;;;;;3.00;2.70;;;18.90;97.40;;;;;;4862505;29;20037;-90
2021/07/05 04:13:12;;;;;;;3.10;2.80;;;18.90;97.40;;;;;;4864466;29;20037;-92
2021/07/05 04:15:37;;;;;;;5.60;3.10;;;18.90;97.60;;;;;;4865125;29;20049;-90
2021/07/05 04:18:05;;;;;;;4.78;2.90;;;18.90;97.90;;;;;;4863964;29;20144;-89
2021/07/05 04:20:30;;;;;;;4.10;3.28;;;18.80;97.80;;;;;;4863943;29;20149;-89
2021/07/05 04:22:56;;;;;;;4.50;3.10;;;18.80;98.10;;;;;;4885150;29;20120;-93
2021/07/05 04:25:23;;;;;;;4.40;3.10;;;18.80;98.20;;;;;;4866286;29;20051;-91
2021/07/05 04:27:49;;;;;;;5.43;3.60;;;18.70;98.60;;;;;;4883979;29;20372;-92
2021/07/05 04:30:19;;;;;;;8.77;3.65;;;18.70;98.50;;;;;;4865725;29;20072;-90
2021/07/05 04:32:47;;;;;;;4.97;3.60;;;18.70;98.20;;;;;;4852570;29;20069;-91
2021/07/05 04:35:17;;;;;;;5.30;3.70;;;18.70;98.50;;;;;;4866076;29;20360;-91
2021/07/05 04:37:43;;;;;;;6.78;3.28;;;18.70;98.60;;;;;;4878815;29;20038;-89
2021/07/05 04:40:12;;;;;;;4.68;3.25;;;18.60;98.70;;;;;;4880105;29;20129;-89
2021/07/05 04:42:39;;;;;;;4.22;3.35;;;18.70;98.80;;;;;;4857553;29;20038;-92
2021/07/05 04:45:07;;;;;;;5.13;3.55;;;18.70;98.80;;;;;;4866277;29;20041;-91
2021/07/05 04:47:33;;;;;;;3.58;2.80;;;18.60;98.90;;;;;;4876222;29;20045;-89
2021/07/05 04:49:59;;;;;;;3.67;3.20;;;18.60;99.10;;;;;;4864397;29;20041;-91
2021/07/05 04:52:25;;;;;;;6.63;3.60;;;18.70;98.80;;;;;;4867915;29;20818;-89
2021/07/05 04:54:51;;;;;;;5.35;3.80;;;18.70;99.00;;;;;;4864157;29;20182;-90
2021/07/05 04:57:20;;;;;;;5.35;3.40;;;18.70;98.80;;;;;;4860481;29;20077;-88
2021/07/05 04:59:45;;;;;;;6.68;3.28;;;18.80;98.70;;;;;;4863223;29;20048;-89
2021/07/05 05:02:11;;;;;;;7.35;3.35;;;18.80;98.70;;;;;;4863739;29;20041;-91
2021/07/05 05:04:37;;;;;;;4.85;3.47;;;18.90;98.40;;;;;;4865842;29;20045;-90
2021/07/05 05:07:03;;;;;;;5.70;3.42;;;18.80;98.40;;;;;;4865082;29;20046;-91
2021/07/05 05:09:28;;;;;;;8.13;3.53;;;18.90;98.40;;;;;;4864549;29;20588;-90
2021/07/05 05:11:54;;;;;;;4.90;3.40;;;18.80;98.60;;;;;;4880248;29;20077;-89
2021/07/05 05:14:20;;;;;;;3.58;3.22;;;18.90;98.60;;;;;;4864911;29;20398;-92
2021/07/05 05:16:48;;;;;;;5.30;3.80;;;18.90;98.50;;;;;;4865735;29;20055;-91
2021/07/05 05:19:17;;;;;;;5.30;3.17;;;18.90;98.50;;;;;;4864632;29;20053;-91
2021/07/05 05:21:43;;;;;;;6.75;3.22;;;18.90;98.60;;;;;;4865071;29;20045;-91
2021/07/05 05:24:08;;;;;;;5.20;3.55;;;18.90;98.80;;;;;;4865904;29;20041;-89
2021/07/05 05:26:34;;;;;;;4.07;3.15;;;18.90;98.60;;;;;;4861907;29;20050;-91
2021/07/05 05:29:01;;;;;;;4.25;3.70;;;18.90;98.60;;;;;;4863030;29;20080;-89
2021/07/05 05:31:30;;;;;;;6.38;3.67;;;18.90;98.70;;;;;;4864086;29;20114;-90
2021/07/05 05:33:56;;;;;;;4.72;3.03;;;18.90;98.60;;;;;;4864350;29;20059;-91
2021/07/05 05:36:21;;;;;;;5.15;3.30;;;19.00;98.60;;;;;;4864263;29;20045;-89
2021/07/05 05:38:48;;;;;;;5.25;3.60;;;19.00;98.60;;;;;;4879476;29;20124;-90
2021/07/05 05:41:15;;;;;;;4.35;2.70;;;19.00;98.60;;;;;;4863795;29;20060;-88
2021/07/05 05:43:40;;;;;;;4.57;2.30;;;19.10;98.40;;;;;;4879021;29;20038;-88
2021/07/05 05:46:07;;;;;;;5.35;3.33;;;19.10;98.30;;;;;;4864671;29;20093;-88
2021/07/05 05:48:32;;;;;;;4.00;2.65;;;19.10;98.30;;;;;;4863023;29;20033;-89
2021/07/05 05:50:58;;;;;;;4.40;3.00;;;19.10;97.90;;;;;;4861140;29;20046;-89
2021/07/05 05:53:24;;;;;;;3.80;2.60;;;19.20;98.10;;;;;;4854461;29;20041;-90
2021/07/05 05:55:51;;;;;;;4.20;2.72;;;19.20;97.90;;;;;;4862420;29;20052;-88
2021/07/05 05:58:17;;;;;;;3.90;2.58;;;19.30;98.10;;;;;;4866338;29;20041;-90
2021/07/05 06:00:44;;;;;;;3.55;2.67;;;19.30;98.10;;;;;;4876853;29;20041;-90
2021/07/05 06:03:09;;;;;;;4.25;3.00;;;19.40;98.00;;;;;;4863208;29;20048;-90
2021/07/05 06:05:35;;;;;;;4.82;2.75;;;19.40;98.00;;;;;;4863149;29;20049;-91
2021/07/05 06:08:02;;;;;;;3.17;2.72;;;19.40;97.50;;;;;;4875215;29;20057;-89
2021/07/05 06:10:27;;;;;;;4.72;2.95;;;19.50;97.70;;;;;;4876768;29;20709;-90
2021/07/05 06:12:55;;;;;;;3.90;2.72;;;19.50;97.80;;;;;;4853577;29;20052;-90
2021/07/05 06:15:22;;;;;;;5.10;2.63;;;19.50;97.70;;;;;;4850747;29;20320;-91
2021/07/05 06:17:49;;;;;;;4.78;2.92;;;19.50;97.40;;;;;;4862754;29;20444;-91
2021/07/05 06:20:15;;;;;;;3.38;2.85;;;19.60;97.30;;;;;;4856171;29;20121;-91
2021/07/05 06:22:47;;;;;;;3.03;2.65;;;19.60;97.10;;;;;;4850872;29;20081;-91
2021/07/05 06:25:13;;;;;;;4.00;3.40;;;19.70;96.90;;;;;;4862169;29;20041;-90
2021/07/05 06:27:40;;;;;;;2.88;2.42;;;19.70;96.80;;;;;;4855467;29;20052;-92
2021/07/05 06:30:06;;;;;;;3.10;2.42;;;19.80;96.30;;;;;;4858864;29;20041;-90
2021/07/05 06:32:32;;;;;;;5.05;2.65;;;19.80;96.50;;;;;;4849215;29;20034;-89
2021/07/05 06:34:57;;;;;;;3.38;2.70;;;19.80;96.60;;;;;;4862805;29;20096;-90
2021/07/05 06:37:26;;;;;;;5.20;2.55;;;19.80;96.20;;;;;;4861243;29;20041;-91
2021/07/05 06:39:52;;;;;;;5.05;2.63;;;19.80;96.50;;;;;;4847711;29;20049;-90
2021/07/05 06:42:17;;;;;;;3.70;3.22;;;19.80;96.80;;;;;;4856830;29;20046;-91
2021/07/05 06:44:43;;;;;;;4.15;3.15;;;19.90;96.80;;;;;;4867700;29;20049;-91
2021/07/05 06:47:08;;;;;;;8.25;3.75;;;19.90;96.60;;;;;;4874033;29;20072;-90
2021/07/05 06:49:34;;;;;;;4.20;3.28;;;19.90;97.00;;;;;;4862480;29;20458;-90
2021/07/05 06:51:59;;;;;;;4.20;3.10;;;19.90;96.70;;;;;;4853412;29;20053;-90
2021/07/05 06:54:25;;;;;;;5.20;2.90;;;20.00;97.00;;;;;;4852177;29;20045;-89
2021/07/05 06:56:50;;;;;;;4.10;2.80;;;20.10;96.70;;;;;;4858835;29;20121;-90
2021/07/05 06:59:16;;;;;;;4.82;3.20;;;20.20;96.40;;;;;;4850375;29;20045;-90
2021/07/05 07:01:42;;;;;;;4.90;3.35;;;20.30;96.30;;;;;;4860374;29;20289;-90
2021/07/05 07:04:07;;;;;;;4.05;2.90;;;20.40;96.50;;;;;;4876555;29;20345;-90
2021/07/05 07:06:35;;;;;;;4.18;2.35;;;20.40;95.70;;;;;;4859827;29;20093;-90
2021/07/05 07:09:00;;;;;;;4.63;2.63;;;20.50;95.00;;;;;;4860281;29;20038;-90
2021/07/05 07:11:26;;;;;;;3.05;2.15;;;20.50;95.10;;;;;;4875224;29;20420;-89
2021/07/05 07:13:51;;;;;;;6.65;2.65;;;20.50;94.80;;;;;;4864603;29;20037;-89
2021/07/05 07:16:20;;;;;;;6.15;2.40;;;20.50;94.80;;;;;;4873706;29;20037;-90
2021/07/05 07:21:29;;;;;;;4.90;3.00;;;20.60;95.20;;;;;;4850905;29;20044;-90
2021/07/05 07:23:55;;;;;;;4.95;2.95;;;20.70;95.70;;;;;;4849356;29;20042;-89
2021/07/05 07:26:21;;;;;;;6.57;2.95;;;20.90;95.30;;;;;;4862409;29;20310;-89
2021/07/05 07:28:52;;;;;;;4.22;2.60;;;21.00;94.80;;;;;;4862054;29;20041;-90
2021/07/05 07:31:17;;;;;;;6.70;3.00;;;21.10;95.40;;;;;;4853098;29;20287;-90
2021/07/05 07:33:43;;;;;;;7.70;3.33;;;21.30;94.10;;;;;;4857720;29;20066;-88
2021/07/05 07:36:09;;;;;;;4.05;3.10;;;21.30;94.00;;;;;;4856482;29;20148;-86
2021/07/05 07:38:40;;;;;;;6.07;2.50;;;21.40;94.40;;;;;;4869732;29;20080;-86
2021/07/05 07:41:05;;;;;;;3.15;2.85;;;21.50;93.70;;;;;;4846776;29;20184;-84
2021/07/05 07:43:31;;;;;;;3.08;2.63;;;21.60;94.50;;;;;;4856678;29;20041;-87
2021/07/05 07:45:56;;;;;;;2.42;2.22;;;21.80;94.70;;;;;;4850516;29;20188;-85
2021/07/05 07:48:22;;;;;;;4.70;2.92;;;22.10;94.20;;;;;;4860361;29;20068;-82
2021/07/05 07:50:47;;;;;;;3.40;2.72;;;22.30;93.40;;;;;;4851328;29;20068;-83
2021/07/05 07:53:13;;;;;;;4.68;2.30;;;22.50;92.40;;;;;;4856978;29;20042;-84
2021/07/05 07:55:38;;;;;;;3.22;2.13;;;22.60;92.20;;;;;;4858150;29;20145;-84
2021/07/05 07:58:04;;;;;;;3.35;2.05;;;22.70;91.90;;;;;;4853117;29;20141;-84
2021/07/05 08:00:31;;;;;;;2.60;2.40;;;22.70;91.60;;;;;;4857773;29;20085;-84
2021/07/05 08:02:57;;;;;;;2.78;2.30;;;22.70;91.70;;;;;;4852191;29;20065;-83
2021/07/05 08:05:22;;;;;;;3.45;2.50;;;22.80;91.60;;;;;;4859987;29;20784;-83
2021/07/05 08:07:48;;;;;;;2.83;1.38;;;22.90;91.30;;;;;;4862506;29;20041;-84
2021/07/05 08:10:15;;;;;;;3.80;2.00;;;23.00;91.50;;;;;;4858425;29;20625;-83
2021/07/05 08:12:42;;;;;;;2.28;1.65;;;23.20;91.50;;;;;;4844869;29;20132;-84
2021/07/05 08:15:09;;;;;;;4.72;1.58;;;23.30;89.50;;;;;;4844599;29;20046;-84
2021/07/05 08:17:35;;;;;;;1.65;1.50;;;23.40;87.10;;;;;;4854393;29;20101;-83
2021/07/05 08:20:00;;;;;;;2.47;1.70;;;23.50;89.70;;;;;;4877953;29;20041;-84
2021/07/05 08:22:26;;;;;;;5.65;1.73;;;23.50;88.90;;;;;;4861717;29;20049;-83
2021/07/05 08:24:52;;;;;;;2.00;1.35;;;23.50;85.90;;;;;;4876624;29;20051;-83
2021/07/05 08:27:18;;;;;;;1.60;0.93;;;23.50;83.90;;;;;;4876847;29;20049;-83
2021/07/05 08:29:43;;;;;;;2.40;1.38;;;23.60;86.90;;;;;;4878097;29;20049;-83
2021/07/05 08:32:09;;;;;;;4.88;1.10;;;23.60;84.30;;;;;;4862417;29;20045;-83
2021/07/05 08:34:34;;;;;;;1.33;1.00;;;23.80;86.20;;;;;;4862931;29;20064;-83
2021/07/05 08:37:00;;;;;;;1.63;0.73;;;24.00;83.60;;;;;;4862262;29;20419;-83
2021/07/05 08:39:26;;;;;;;1.17;0.80;;;24.10;82.90;;;;;;4868125;29;20060;-83
2021/07/05 08:41:51;;;;;;;1.20;0.88;;;24.10;77.70;;;;;;4861395;29;20413;-83
2021/07/05 08:44:18;;;;;;;1.30;0.95;;;24.00;79.20;;;;;;4862083;29;20061;-83
2021/07/05 08:46:44;;;;;;;1.92;0.90;;;24.10;79.30;;;;;;4861961;29;20080;-82
2021/07/05 08:49:11;;;;;;;3.53;1.48;;;24.20;80.40;;;;;;4857022;29;20048;-83
2021/07/05 08:51:36;;;;;;;2.65;1.10;;;24.30;80.30;;;;;;4858900;29;20425;-83
2021/07/05 08:54:02;;;;;;;0.82;0.68;;;24.40;83.70;;;;;;4863038;29;20049;-83
2021/07/05 08:56:27;;;;;;;3.35;0.95;;;24.60;82.00;;;;;;4858349;29;20069;-83
2021/07/05 08:58:53;;;;;;;0.90;0.73;;;24.70;80.40;;;;;;4844036;29;20045;-83
2021/07/05 09:01:19;;;;;;;1.05;0.73;;;24.90;77.50;;;;;;4844285;29;20126;-83
2021/07/05 09:03:45;;;;;;;1.95;0.60;;;25.00;83.00;;;;;;4851196;29;20077;-83
2021/07/05 09:06:24;;;;;;;1.20;0.77;;;25.10;77.80;;;;;;4876429;29;20673;-82
2021/07/05 09:08:59;;;;;;;1.00;0.60;;;25.20;76.50;;;;;;4876408;29;20124;-83
2021/07/05 09:11:48;;;;;;;0.90;0.65;;;25.20;77.70;;;;;;4862011;29;20045;-83
2021/07/05 09:14:23;;;;;;;3.35;0.85;;;25.30;76.10;;;;;;4857629;29;20085;-83
2021/07/05 09:16:51;;;;;;;1.65;0.60;;;25.30;74.90;;;;;;4847900;29;20494;-82
2021/07/05 09:19:18;;;;;;;2.80;0.60;;;25.30;75.20;;;;;;4844006;29;20576;-83
2021/07/05 09:21:46;;;;;;;1.25;0.90;;;25.30;74.90;;;;;;4876860;29;20056;-83
2021/07/05 09:24:12;;;;;;;1.08;0.70;;;25.40;75.10;;;;;;4869862;29;20056;-83
2021/07/05 09:26:43;;;;;;;2.47;0.75;;;25.40;73.70;;;;;;4860665;29;20052;-83
2021/07/05 09:29:14;;;;;;;0.73;0.52;;;25.50;74.40;;;;;;4862733;29;20109;-82
2021/07/05 09:31:58;;;;;;;2.63;0.98;;;25.60;73.10;;;;;;4861213;29;20181;-82
2021/07/05 09:34:27;;;;;;;1.17;0.70;;;25.70;72.80;;;;;;4861279;29;20050;-82
2021/07/05 09:37:11;;;;;;;3.00;0.65;;;25.80;73.70;;;;;;4860784;29;20089;-82
2021/07/05 09:39:36;;;;;;;0.90;0.75;;;25.90;73.00;;;;;;4861283;29;20330;-83
2021/07/05 09:42:12;;;;;;;3.35;0.70;;;25.90;73.90;;;;;;4862493;29;20033;-83
2021/07/05 09:44:43;;;;;;;0.88;0.50;;;26.00;70.30;;;;;;4861842;29;20499;-82
2021/07/05 09:47:15;;;;;;;1.67;0.73;;;26.00;71.50;;;;;;4862126;29;20033;-82
2021/07/05 09:49:41;;;;;;;0.88;0.60;;;26.00;71.20;;;;;;4861090;29;20121;-82
2021/07/05 09:52:26;;;;;;;1.85;0.90;;;26.00;72.00;;;;;;4861441;29;20037;-83
2021/07/05 09:54:56;;;;;;;1.20;0.90;;;25.90;72.20;;;;;;4861246;29;20037;-83
2021/07/05 09:57:30;;;;;;;1.65;0.68;;;25.90;72.90;;;;;;4854533;29;20406;-84
2021/07/05 10:00:13;;;;;;;0.95;0.70;;;26.00;72.60;;;;;;4859856;29;20045;-83
2021/07/05 10:03:07;;;;;;;2.13;0.70;;;26.10;71.60;;;;;;4857381;29;20057;-83
2021/07/05 10:05:35;;;;;;;1.10;0.75;;;25.90;71.80;;;;;;4875926;29;20048;-82
2021/07/05 10:08:10;;;;;;;0.80;0.60;;;26.00;73.20;;;;;;4858674;29;20065;-83
2021/07/05 10:10:39;;;;;;;0.90;0.50;;;26.00;71.80;;;;;;4853648;29;20045;-84
2021/07/05 10:13:08;;;;;;;1.33;1.00;;;26.00;73.00;;;;;;4860237;29;20112;-83
2021/07/05 10:15:35;;;;;;;2.40;0.68;;;26.00;70.30;;;;;;4860067;29;20045;-84
2021/07/05 10:18:00;;;;;;;1.00;0.90;;;25.90;70.80;;;;;;4860101;29;20078;-83
2021/07/05 10:20:30;;;;;;;1.00;0.80;;;26.00;70.60;;;;;;4852240;29;20033;-84
2021/07/05 10:23:02;;;;;;;1.50;0.90;;;25.90;71.80;;;;;;4846075;29;20109;-84
2021/07/05 10:25:30;;;;;;;1.85;0.73;;;25.80;73.80;;;;;;4873689;29;20056;-83
2021/07/05 10:27:56;;;;;;;1.08;0.70;;;25.90;72.80;;;;;;4860598;29;20037;-83
2021/07/05 10:30:23;;;;;;;1.02;0.90;;;25.90;71.00;;;;;;4860505;29;20040;-83
2021/07/05 10:32:49;;;;;;;1.95;0.88;;;25.80;70.90;;;;;;4860593;29;20041;-83
2021/07/05 10:35:17;;;;;;;1.33;0.70;;;25.80;72.20;;;;;;4873460;29;20490;-84
2021/07/05 10:38:05;;;;;;;1.55;1.13;;;25.80;72.20;;;;;;4863491;29;20324;-82
2021/07/05 10:40:39;;;;;;;4.45;0.88;;;25.90;75.00;;;;;;4848318;29;20137;-83
2021/07/05 10:43:06;;;;;;;2.63;0.95;;;25.80;74.10;;;;;;4849846;29;20061;-82
2021/07/05 10:45:56;;;;;;;1.00;0.88;;;25.90;74.90;;;;;;4855081;29;20371;-83
2021/07/05 10:48:30;;;;;;;1.08;0.80;;;26.00;76.20;;;;;;4859621;29;20128;-83
2021/07/05 10:50:57;;;;;;;2.13;0.80;;;26.20;73.50;;;;;;4869526;29;20430;-82
2021/07/05 10:53:40;;;;;;;4.15;1.13;;;26.10;71.10;;;;;;4862730;29;20133;-82
2021/07/05 10:56:31;;;;;;;1.55;0.88;;;26.10;73.00;;;;;;4857079;29;20100;-83
2021/07/05 10:58:58;;;;;;;1.13;0.82;;;26.10;70.50;;;;;;4847021;29;20041;-82
2021/07/05 11:01:39;;;;;;;1.10;0.85;;;26.10;70.80;;;;;;4860250;29;20124;-83
2021/07/05 11:04:21;;;;;;;2.13;0.80;;;26.00;71.10;;;;;;4860037;29;20049;-83
2021/07/05 11:06:49;;;;;;;1.60;0.70;;;25.80;72.10;;;;;;4845147;29;20041;-82
2021/07/05 11:09:23;;;;;;;3.33;0.95;;;25.70;72.50;;;;;;4856367;29;20042;-83
2021/07/05 11:11:59;;;;;;;1.08;0.68;;;25.60;71.90;;;;;;4856908;29;20051;-83
2021/07/05 11:14:38;;;;;;;1.17;0.70;;;25.50;73.40;;;;;;4857296;29;20040;-82
2021/07/05 11:17:16;;;;;;;0.75;0.50;;;25.40;74.30;;;;;;4850580;29;20431;-82
2021/07/05 11:19:48;;;;;;;2.55;0.80;;;25.40;71.90;;;;;;4842444;29;20046;-82
2021/07/05 11:22:25;;;;;;;1.02;0.73;;;25.50;71.60;;;;;;4856474;29;20046;-83
2021/07/05 11:24:54;;;;;;;1.35;0.93;;;25.60;74.70;;;;;;4849992;29;20412;-82
2021/07/05 11:27:30;;;;;;;0.93;0.70;;;25.80;74.50;;;;;;4847689;29;20048;-83
2021/07/05 11:30:15;;;;;;;3.30;0.65;;;26.10;73.50;;;;;;4856860;29;20132;-82
2021/07/05 11:32:43;;;;;;;1.10;0.65;;;26.40;72.70;;;;;;4846750;29;20132;-82
2021/07/05 11:35:37;;;;;;;0.63;0.47;;;26.70;72.40;;;;;;4855741;29;20052;-82
2021/07/05 11:38:08;;;;;;;1.08;0.65;;;27.00;69.80;;;;;;4841083;29;20321;-82
2021/07/05 11:40:47;;;;;;;3.55;0.52;;;27.30;71.50;;;;;;4856391;29;20041;-82
2021/07/05 11:43:14;;;;;;;0.63;0.50;;;27.50;69.60;;;;;;4851756;29;20048;-82
2021/07/05 11:45:42;;;;;;;1.27;0.70;;;27.60;70.30;;;;;;4866269;29;20056;-83
2021/07/05 11:48:10;;;;;;;0.90;0.60;;;27.70;68.30;;;;;;4849877;29;20042;-82
2021/07/05 11:50:40;;;;;;;2.42;0.68;;;27.70;70.10;;;;;;4854938;29;20068;-82
2021/07/05 11:53:06;;;;;;;0.85;0.40;;;27.70;67.80;;;;;;4859133;29;20085;-82
2021/07/05 11:55:34;;;;;;;0.73;0.50;;;27.80;68.30;;;;;;4840800;29;20042;-83
2021/07/05 11:58:10;;;;;;;0.50;0.40;;;27.90;66.70;;;;;;4847155;29;20033;-83
2021/07/05 12:00:38;;;;;;;0.52;0.40;;;27.90;66.30;;;;;;4845338;29;20352;-82
2021/07/05 12:03:09;;;;;;;0.50;0.30;;;28.00;65.40;;;;;;4844697;29;20044;-83
2021/07/05 12:05:36;;;;;;;2.92;0.70;;;28.20;66.00;;;;;;4859586;29;20048;-83
2021/07/05 12:08:05;;;;;;;1.38;0.52;;;28.20;64.80;;;;;;4844849;29;20121;-83
2021/07/05 12:10:32;;;;;;;0.95;0.30;;;28.10;65.30;;;;;;4856417;29;20622;-83
2021/07/05 12:13:15;;;;;;;1.85;0.40;;;27.90;63.40;;;;;;4854239;29;20052;-83
2021/07/05 12:15:43;;;;;;;3.03;0.50;;;27.70;65.70;;;;;;4877460;29;20401;-83
2021/07/05 12:18:13;;;;;;;1.88;0.85;;;27.40;65.00;;;;;;4863442;29;20120;-82
2021/07/05 12:20:39;;;;;;;1.92;0.45;;;27.20;65.20;;;;;;4863324;29;20425;-82
2021/07/05 12:23:10;;;;;;;1.88;0.60;;;26.90;66.50;;;;;;4877599;29;20078;-82
2021/07/05 12:25:36;;;;;;;1.23;0.40;;;26.50;68.10;;;;;;4861600;29;20306;-82
2021/07/05 12:28:09;;;;;;;0.90;0.77;;;26.20;72.00;;;;;;4863262;29;20124;-83
2021/07/05 12:30:36;;;;;;;1.98;1.08;;;25.70;75.10;;;;;;4862613;29;20132;-83
2021/07/05 12:33:04;;;;;;;2.45;0.90;;;25.20;79.90;;;;;;4876878;29;20310;-83
2021/07/05 12:35:30;;;;;;;1.73;0.80;;;24.90;82.90;;;;;;4862199;29;20046;-82
2021/07/05 12:37:58;;;;;;;1.85;1.00;;;24.80;83.30;;;;;;4862795;29;20421;-83
2021/07/05 12:40:26;;;;;;;3.92;1.35;;;24.60;85.70;;;;;;4861888;29;20076;-84
2021/07/05 12:42:57;;;;;;;3.80;0.85;;;24.50;85.30;;;;;;4878051;29;20127;-83
2021/07/05 12:45:44;;;;;;;1.40;1.08;;;24.30;87.10;;;;;;4862784;29;20038;-84
2021/07/05 12:48:13;;;;;;;1.30;0.80;;;24.30;89.90;;;;;;4862764;29;20141;-84
2021/07/05 12:50:46;;;;;;;3.08;0.90;;;24.30;89.50;;;;;;4858786;29;20046;-84
2021/07/05 12:53:18;;;;;;;1.73;0.93;;;24.40;89.80;;;;;;4859159;29;20045;-83
2021/07/05 12:56:04;;;;;;;2.03;1.02;;;24.50;88.50;;;;;;4844387;29;20132;-83